sensor_id;sensor_type;location;lat;lon;timestamp;temperature;humidity
39621;DHT22;25309;48.686;9.170;2022-10-04T03:02:38;7.40;99.90
39621;DHT22;25309;48.686;9.170;2022-10-04T03:05:07;7.50;99.90
39621;DHT22;25309;48.686;9.170;2022-10-04T03:07:36;7.40;99.90
39621;DHT22;25309;48.686;9.170;2022-10-04T03:10:06;7.40;99.90
39621;DHT22;25309;48.686;9.170;2022-10-04T03:12:34;7.40;99.90
39621;DHT22;25309;48.686;9.170;2022-10-04T03:15:06;7.30;99.90
39621;DHT22;25309;48.686;9.170;2022-10-04T03:17:34;7.40;99.90
39621;DHT22;25309;48.686;9.170;2022-10-04T03:20:03;7.40;99.90
39621;DHT22;25309;48.686;9.170;2022-10-04T03:22:31;7.40;99.90
39621;DHT22;25309;48.686;9.170;2022-10-04T03:24:58;7.40;99.90
39621;DHT22;25309;48.686;9.170;2022-10-04T03:27:30;7.40;99.90
39621;DHT22;25309;48.686;9.170;2022-10-04T03:29:57;7.40;99.90
39621;DHT22;25309;48.686;9.170;2022-10-04T03:32:25;7.40;99.90
39621;DHT22;25309;48.686;9.170;2022-10-04T03:34:57;7.30;99.90
39621;DHT22;25309;48.686;9.170;2022-10-04T03:37:28;7.30;99.90
39621;DHT22;25309;48.686;9.170;2022-10-04T03:39:56;7.40;99.90
39621;DHT22;25309;48.686;9.170;2022-10-04T03:42:26;7.40;99.90
39621;DHT22;25309;48.686;9.170;2022-10-04T03:44:56;7.30;99.90
39621;DHT22;25309;48.686;9.170;2022-10-04T03:47:27;7.20;99.90
39621;DHT22;25309;48.686;9.170;2022-10-04T03:50:00;7.30;99.90
39621;DHT22;25309;48.686;9.170;2022-10-04T03:52:32;7.30;99.90
39621;DHT22;25309;48.686;9.170;2022-10-04T03:55:02;7.40;99.90
39621;DHT22;25309;48.686;9.170;2022-10-04T03:57:31;7.30;99.90
39621;DHT22;25309;48.686;9.170;2022-10-04T03:59:59;7.20;99.90
39621;DHT22;25309;48.686;9.170;2022-10-04T04:02:30;7.30;99.90
39621;DHT22;25309;48.686;9.170;2022-10-04T04:05:05;7.20;99.90
39621;DHT22;25309;48.686;9.170;2022-10-04T04:07:40;7.20;99.90
39621;DHT22;25309;48.686;9.170;2022-10-04T04:10:17;7.20;99.90
39621;DHT22;25309;48.686;9.170;2022-10-04T04:12:52;7.20;99.90
39621;DHT22;25309;48.686;9.170;2022-10-04T04:15:21;7.20;99.90
39621;DHT22;25309;48.686;9.170;2022-10-04T04:17:51;7.10;99.90
39621;DHT22;25309;48.686;9.170;2022-10-04T04:20:21;7.10;99.90
39621;DHT22;25309;48.686;9.170;2022-10-04T04:22:57;7.10;99.90
39621;DHT22;25309;48.686;9.170;2022-10-04T04:25:27;7.10;99.90
39621;DHT22;25309;48.686;9.170;2022-10-04T04:28:00;7.10;99.90
39621;DHT22;25309;48.686;9.170;2022-10-04T04:30:29;7.10;99.90
39621;DHT22;25309;48.686;9.170;2022-10-04T04:33:02;7.10;99.90
39621;DHT22;25309;48.686;9.170;2022-10-04T04:35:32;7.10;99.90
39621;DHT22;25309;48.686;9.170;2022-10-04T04:38:16;7.20;99.90
39621;DHT22;25309;48.686;9.170;2022-10-04T04:40:45;7.20;99.90
39621;DHT22;25309;48.686;9.170;2022-10-04T04:43:16;7.20;99.90
39621;DHT22;25309;48.686;9.170;2022-10-04T04:45:45;7.20;99.90
39621;DHT22;25309;48.686;9.170;2022-10-04T04:48:35;7.20;99.90
39621;DHT22;25309;48.686;9.170;2022-10-04T04:51:03;7.20;99.90
39621;DHT22;25309;48.686;9.170;2022-10-04T04:53:32;7.10;99.90
39621;DHT22;25309;48.686;9.170;2022-10-04T04:56:01;7.10;99.90
39621;DHT22;25309;48.686;9.170;2022-10-04T04:58:34;7.10;99.90
39621;DHT22;25309;48.686;9.170;2022-10-04T05:01:03;7.10;99.90
39621;DHT22;25309;48.686;9.170;2022-10-04T05:03:31;7.10;99.90
39621;DHT22;25309;48.686;9.170;2022-10-04T05:06:00;7.00;99.90
39621;DHT22;25309;48.686;9.170;2022-10-04T05:08:32;7.10;99.90
39621;DHT22;25309;48.686;9.170;2022-10-04T05:11:11;7.00;99.90
39621;DHT22;25309;48.686;9.170;2022-10-04T05:13:42;7.00;99.90
39621;DHT22;25309;48.686;9.170;2022-10-04T05:16:13;7.00;99.90
39621;DHT22;25309;48.686;9.170;2022-10-04T05:18:42;7.00;99.90
39621;DHT22;25309;48.686;9.170;2022-10-04T05:21:14;7.00;99.90
39621;DHT22;25309;48.686;9.170;2022-10-04T05:23:45;7.00;99.90
39621;DHT22;25309;48.686;9.170;2022-10-04T05:26:13;7.10;99.90
39621;DHT22;25309;48.686;9.170;2022-10-04T05:28:40;7.10;99.90
39621;DHT22;25309;48.686;9.170;2022-10-04T05:31:29;7.10;99.90
39621;DHT22;25309;48.686;9.170;2022-10-04T05:33:58;7.10;99.90
39621;DHT22;25309;48.686;9.170;2022-10-04T05:36:50;7.10;99.90
39621;DHT22;25309;48.686;9.170;2022-10-04T05:39:26;7.10;99.90
39621;DHT22;25309;48.686;9.170;2022-10-04T05:42:04;7.10;99.90
39621;DHT22;25309;48.686;9.170;2022-10-04T05:44:36;7.10;99.90
39621;DHT22;25309;48.686;9.170;2022-10-04T05:47:05;7.10;99.90
39621;DHT22;25309;48.686;9.170;2022-10-04T05:49:39;7.10;99.90
39621;DHT22;25309;48.686;9.170;2022-10-04T05:52:14;7.10;99.90
39621;DHT22;25309;48.686;9.170;2022-10-04T05:54:43;7.10;99.90
39621;DHT22;25309;48.686;9.170;2022-10-04T05:57:24;7.10;99.90
39621;DHT22;25309;48.686;9.170;2022-10-04T06:00:08;7.10;99.90
39621;DHT22;25309;48.686;9.170;2022-10-04T06:02:57;7.10;99.90
39621;DHT22;25309;48.686;9.170;2022-10-04T06:05:33;7.20;99.90
39621;DHT22;25309;48.686;9.170;2022-10-04T06:08:08;7.30;99.90
39621;DHT22;25309;48.686;9.170;2022-10-04T06:11:01;7.30;99.90
39621;DHT22;25309;48.686;9.170;2022-10-04T06:14:02;7.30;99.90
39621;DHT22;25309;48.686;9.170;2022-10-04T06:16:44;7.40;99.90
39621;DHT22;25309;48.686;9.170;2022-10-04T06:19:38;7.40;99.90
39621;DHT22;25309;48.686;9.170;2022-10-04T06:22:14;7.50;99.90
39621;DHT22;25309;48.686;9.170;2022-10-04T06:24:45;7.60;99.90
39621;DHT22;25309;48.686;9.170;2022-10-04T06:27:18;7.60;99.90
39621;DHT22;25309;48.686;9.170;2022-10-04T06:29:51;7.70;99.90
39621;DHT22;25309;48.686;9.170;2022-10-04T06:32:46;7.70;99.90
39621;DHT22;25309;48.686;9.170;2022-10-04T06:35:37;7.80;99.90
39621;DHT22;25309;48.686;9.170;2022-10-04T06:38:34;7.80;99.90
39621;DHT22;25309;48.686;9.170;2022-10-04T06:41:27;7.90;99.90
39621;DHT22;25309;48.686;9.170;2022-10-04T06:44:24;8.00;99.90
39621;DHT22;25309;48.686;9.170;2022-10-04T06:47:03;8.10;99.90
39621;DHT22;25309;48.686;9.170;2022-10-04T06:49:40;8.10;99.90
39621;DHT22;25309;48.686;9.170;2022-10-04T06:52:29;8.30;99.90
39621;DHT22;25309;48.686;9.170;2022-10-04T06:58:27;8.40;99.90
39621;DHT22;25309;48.686;9.170;2022-10-04T07:01:03;8.50;99.90
39621;DHT22;25309;48.686;9.170;2022-10-04T07:03:36;8.60;99.90
39621;DHT22;25309;48.686;9.170;2022-10-04T07:06:06;8.70;99.90
39621;DHT22;25309;48.686;9.170;2022-10-04T07:08:40;8.80;99.90
39621;DHT22;25309;48.686;9.170;2022-10-04T07:11:14;8.80;99.90
39621;DHT22;25309;48.686;9.170;2022-10-04T07:13:47;8.90;99.90
39621;DHT22;25309;48.686;9.170;2022-10-04T07:16:28;9.00;99.90
39621;DHT22;25309;48.686;9.170;2022-10-04T07:19:03;9.20;99.90
39621;DHT22;25309;48.686;9.170;2022-10-04T07:21:37;9.20;99.90
39621;DHT22;25309;48.686;9.170;2022-10-04T07:24:09;9.30;99.90
39621;DHT22;25309;48.686;9.170;2022-10-04T07:26:44;9.40;99.90
39621;DHT22;25309;48.686;9.170;2022-10-04T07:29:15;9.50;99.90
39621;DHT22;25309;48.686;9.170;2022-10-04T07:32:08;9.60;99.90
39621;DHT22;25309;48.686;9.170;2022-10-04T07:34:42;9.70;99.90
39621;DHT22;25309;48.686;9.170;2022-10-04T07:37:12;9.70;99.90
39621;DHT22;25309;48.686;9.170;2022-10-04T07:39:44;9.80;99.90
39621;DHT22;25309;48.686;9.170;2022-10-04T07:42:22;9.80;99.90
39621;DHT22;25309;48.686;9.170;2022-10-04T07:45:03;9.90;99.90
39621;DHT22;25309;48.686;9.170;2022-10-04T07:47:35;9.90;99.90
39621;DHT22;25309;48.686;9.170;2022-10-04T07:50:19;10.00;99.90
39621;DHT22;25309;48.686;9.170;2022-10-04T07:52:57;10.00;99.90
39621;DHT22;25309;48.686;9.170;2022-10-04T07:55:44;10.10;99.90
39621;DHT22;25309;48.686;9.170;2022-10-04T07:58:22;10.10;99.90
39621;DHT22;25309;48.686;9.170;2022-10-04T08:00:58;10.10;99.90
39621;DHT22;25309;48.686;9.170;2022-10-04T08:03:39;10.20;99.90
39621;DHT22;25309;48.686;9.170;2022-10-04T08:06:13;10.30;99.90
39621;DHT22;25309;48.686;9.170;2022-10-04T08:08:59;10.40;99.90
39621;DHT22;25309;48.686;9.170;2022-10-04T08:11:37;10.50;99.90
39621;DHT22;25309;48.686;9.170;2022-10-04T08:14:20;10.70;99.90
39621;DHT22;25309;48.686;9.170;2022-10-04T08:16:57;10.80;99.90
39621;DHT22;25309;48.686;9.170;2022-10-04T08:19:41;10.90;99.90
39621;DHT22;25309;48.686;9.170;2022-10-04T08:22:20;11.00;99.90
39621;DHT22;25309;48.686;9.170;2022-10-04T08:24:59;11.20;99.90
39621;DHT22;25309;48.686;9.170;2022-10-04T08:27:38;11.40;99.90
39621;DHT22;25309;48.686;9.170;2022-10-04T08:30:12;11.50;99.90
39621;DHT22;25309;48.686;9.170;2022-10-04T08:32:49;11.70;99.90
39621;DHT22;25309;48.686;9.170;2022-10-04T08:35:30;11.90;99.90
39621;DHT22;25309;48.686;9.170;2022-10-04T08:38:21;12.10;99.90
39621;DHT22;25309;48.686;9.170;2022-10-04T08:41:18;12.40;99.90
39621;DHT22;25309;48.686;9.170;2022-10-04T08:50:29;13.30;99.90
39621;DHT22;25309;48.686;9.170;2022-10-04T08:56:08;13.90;99.90
39621;DHT22;25309;48.686;9.170;2022-10-04T08:59:04;14.10;99.90
39621;DHT22;25309;48.686;9.170;2022-10-04T09:01:46;14.60;99.90
39621;DHT22;25309;48.686;9.170;2022-10-04T09:04:50;15.00;99.90
39621;DHT22;25309;48.686;9.170;2022-10-04T09:10:36;16.30;99.90
39621;DHT22;25309;48.686;9.170;2022-10-04T09:16:14;18.40;99.90
39621;DHT22;25309;48.686;9.170;2022-10-04T09:18:57;19.20;99.90
39621;DHT22;25309;48.686;9.170;2022-10-04T09:21:39;19.80;99.90
39621;DHT22;25309;48.686;9.170;2022-10-04T09:24:35;19.90;99.90
39621;DHT22;25309;48.686;9.170;2022-10-04T09:27:17;20.00;99.90
39621;DHT22;25309;48.686;9.170;2022-10-04T09:30:14;20.30;99.90
39621;DHT22;25309;48.686;9.170;2022-10-04T09:33:14;20.50;99.90
39621;DHT22;25309;48.686;9.170;2022-10-04T09:35:57;20.70;99.90
39621;DHT22;25309;48.686;9.170;2022-10-04T09:42:15;20.40;99.90
39621;DHT22;25309;48.686;9.170;2022-10-04T09:45:14;20.40;99.90
39621;DHT22;25309;48.686;9.170;2022-10-04T09:47:59;20.30;99.90
39621;DHT22;25309;48.686;9.170;2022-10-04T09:50:41;20.20;99.90
39621;DHT22;25309;48.686;9.170;2022-10-04T09:53:33;19.90;99.90
39621;DHT22;25309;48.686;9.170;2022-10-04T09:56:14;19.60;99.90
39621;DHT22;25309;48.686;9.170;2022-10-04T09:59:02;19.50;99.90
39621;DHT22;25309;48.686;9.170;2022-10-04T10:01:38;19.50;99.90
39621;DHT22;25309;48.686;9.170;2022-10-04T10:04:27;19.70;99.90
39621;DHT22;25309;48.686;9.170;2022-10-04T10:07:24;19.90;99.90
39621;DHT22;25309;48.686;9.170;2022-10-04T10:10:02;20.20;99.90
39621;DHT22;25309;48.686;9.170;2022-10-04T10:16:16;20.80;99.90
39621;DHT22;25309;48.686;9.170;2022-10-04T10:18:59;21.00;99.90
39621;DHT22;25309;48.686;9.170;2022-10-04T10:21:37;21.00;99.90
39621;DHT22;25309;48.686;9.170;2022-10-04T10:24:31;21.00;99.90
39621;DHT22;25309;48.686;9.170;2022-10-04T10:27:08;21.00;99.90
39621;DHT22;25309;48.686;9.170;2022-10-04T10:30:00;21.10;99.90
39621;DHT22;25309;48.686;9.170;2022-10-04T10:32:59;21.10;99.90
39621;DHT22;25309;48.686;9.170;2022-10-04T10:35:46;21.30;99.90
39621;DHT22;25309;48.686;9.170;2022-10-04T10:38:34;21.40;99.90
39621;DHT22;25309;48.686;9.170;2022-10-04T10:41:21;21.50;99.90
39621;DHT22;25309;48.686;9.170;2022-10-04T10:44:14;21.60;99.90
39621;DHT22;25309;48.686;9.170;2022-10-04T10:46:54;21.70;99.90
39621;DHT22;25309;48.686;9.170;2022-10-04T10:59:04;22.50;99.90
39621;DHT22;25309;48.686;9.170;2022-10-04T11:04:51;23.00;99.90
39621;DHT22;25309;48.686;9.170;2022-10-04T11:07:47;23.10;98.90
39621;DHT22;25309;48.686;9.170;2022-10-04T11:10:52;23.10;98.40
39621;DHT22;25309;48.686;9.170;2022-10-04T11:23:26;23.20;98.30
39621;DHT22;25309;48.686;9.170;2022-10-04T11:26:29;23.30;98.40
39621;DHT22;25309;48.686;9.170;2022-10-04T11:29:11;23.30;97.70
39621;DHT22;25309;48.686;9.170;2022-10-04T11:35:25;23.80;96.40
39621;DHT22;25309;48.686;9.170;2022-10-04T11:38:06;23.80;97.10
39621;DHT22;25309;48.686;9.170;2022-10-04T11:40:48;24.00;98.20
39621;DHT22;25309;48.686;9.170;2022-10-04T11:49:17;24.30;94.80
39621;DHT22;25309;48.686;9.170;2022-10-04T11:55:26;24.10;96.20
39621;DHT22;25309;48.686;9.170;2022-10-04T11:58:05;23.90;96.70
39621;DHT22;25309;48.686;9.170;2022-10-04T12:01:15;24.10;97.70
39621;DHT22;25309;48.686;9.170;2022-10-04T12:04:08;24.50;97.20
39621;DHT22;25309;48.686;9.170;2022-10-04T12:06:50;24.50;96.40
39621;DHT22;25309;48.686;9.170;2022-10-04T12:09:28;24.30;97.40
39621;DHT22;25309;48.686;9.170;2022-10-04T12:12:36;24.40;97.10
39621;DHT22;25309;48.686;9.170;2022-10-04T12:18:45;24.10;99.90
39621;DHT22;25309;48.686;9.170;2022-10-04T12:21:35;24.90;97.10
39621;DHT22;25309;48.686;9.170;2022-10-04T12:24:23;25.20;96.70
39621;DHT22;25309;48.686;9.170;2022-10-04T12:27:16;25.40;96.70
39621;DHT22;25309;48.686;9.170;2022-10-04T12:30:20;25.30;96.70
39621;DHT22;25309;48.686;9.170;2022-10-04T12:32:58;25.30;97.90
39621;DHT22;25309;48.686;9.170;2022-10-04T12:35:39;25.70;97.60
39621;DHT22;25309;48.686;9.170;2022-10-04T12:38:18;25.60;97.00
39621;DHT22;25309;48.686;9.170;2022-10-04T12:40:52;25.80;97.40
39621;DHT22;25309;48.686;9.170;2022-10-04T12:43:27;25.80;96.90
39621;DHT22;25309;48.686;9.170;2022-10-04T12:46:06;25.60;97.10
39621;DHT22;25309;48.686;9.170;2022-10-04T12:48:47;25.30;97.00
39621;DHT22;25309;48.686;9.170;2022-10-04T12:51:34;25.20;96.70
39621;DHT22;25309;48.686;9.170;2022-10-04T12:54:15;25.10;97.00
39621;DHT22;25309;48.686;9.170;2022-10-04T12:56:46;25.60;96.90
39621;DHT22;25309;48.686;9.170;2022-10-04T12:59:34;25.60;96.30
39621;DHT22;25309;48.686;9.170;2022-10-04T13:02:21;25.70;95.40
39621;DHT22;25309;48.686;9.170;2022-10-04T13:04:54;25.90;95.40
39621;DHT22;25309;48.686;9.170;2022-10-04T13:07:37;26.10;94.90
39621;DHT22;25309;48.686;9.170;2022-10-04T13:10:20;26.10;94.60
39621;DHT22;25309;48.686;9.170;2022-10-04T13:16:09;25.90;94.20
39621;DHT22;25309;48.686;9.170;2022-10-04T13:19:03;25.70;94.30
39621;DHT22;25309;48.686;9.170;2022-10-04T13:22:08;26.00;93.60
39621;DHT22;25309;48.686;9.170;2022-10-04T13:24:47;25.90;94.20
39621;DHT22;25309;48.686;9.170;2022-10-04T13:27:28;26.00;94.10
39621;DHT22;25309;48.686;9.170;2022-10-04T13:30:00;26.10;94.00
39621;DHT22;25309;48.686;9.170;2022-10-04T13:32:35;26.40;93.40
39621;DHT22;25309;48.686;9.170;2022-10-04T13:35:13;26.20;93.40
39621;DHT22;25309;48.686;9.170;2022-10-04T13:37:59;26.20;93.20
39621;DHT22;25309;48.686;9.170;2022-10-04T13:40:43;26.30;92.50
39621;DHT22;25309;48.686;9.170;2022-10-04T13:43:44;26.20;92.40
39621;DHT22;25309;48.686;9.170;2022-10-04T13:46:24;26.00;92.80
39621;DHT22;25309;48.686;9.170;2022-10-04T13:49:03;26.20;92.60
39621;DHT22;25309;48.686;9.170;2022-10-04T13:54:48;26.20;92.30
39621;DHT22;25309;48.686;9.170;2022-10-04T13:57:41;25.80;91.80
39621;DHT22;25309;48.686;9.170;2022-10-04T14:00:12;25.80;91.50
39621;DHT22;25309;48.686;9.170;2022-10-04T14:06:18;25.70;92.60
39621;DHT22;25309;48.686;9.170;2022-10-04T14:09:22;25.50;92.30
39621;DHT22;25309;48.686;9.170;2022-10-04T14:12:10;25.00;92.20
39621;DHT22;25309;48.686;9.170;2022-10-04T14:15:06;24.90;92.70
39621;DHT22;25309;48.686;9.170;2022-10-04T14:17:55;24.60;93.20
39621;DHT22;25309;48.686;9.170;2022-10-04T14:21:13;24.50;93.20
39621;DHT22;25309;48.686;9.170;2022-10-04T14:24:15;24.10;93.30
39621;DHT22;25309;48.686;9.170;2022-10-04T14:27:12;24.20;93.00
39621;DHT22;25309;48.686;9.170;2022-10-04T14:30:04;24.00;92.70
39621;DHT22;25309;48.686;9.170;2022-10-04T14:35:42;23.40;93.40
39621;DHT22;25309;48.686;9.170;2022-10-04T14:41:56;23.40;93.70
39621;DHT22;25309;48.686;9.170;2022-10-04T14:44:49;23.30;93.50
39621;DHT22;25309;48.686;9.170;2022-10-04T14:47:47;23.20;93.80
39621;DHT22;25309;48.686;9.170;2022-10-04T14:50:34;23.20;93.90
39621;DHT22;25309;48.686;9.170;2022-10-04T14:53:17;23.20;93.90
39621;DHT22;25309;48.686;9.170;2022-10-04T14:56:03;23.10;93.90
39621;DHT22;25309;48.686;9.170;2022-10-04T14:58:39;23.10;94.30
39621;DHT22;25309;48.686;9.170;2022-10-04T15:01:20;23.00;94.10
39621;DHT22;25309;48.686;9.170;2022-10-04T15:04:20;23.00;94.40
39621;DHT22;25309;48.686;9.170;2022-10-04T15:06:55;23.00;93.90
39621;DHT22;25309;48.686;9.170;2022-10-04T15:09:48;22.80;94.10
39621;DHT22;25309;48.686;9.170;2022-10-04T15:12:40;22.80;94.10
39621;DHT22;25309;48.686;9.170;2022-10-04T15:15:34;22.70;94.80
39621;DHT22;25309;48.686;9.170;2022-10-04T15:18:22;22.70;94.50
39621;DHT22;25309;48.686;9.170;2022-10-04T15:20:56;22.70;94.20
39621;DHT22;25309;48.686;9.170;2022-10-04T15:23:34;22.60;94.20
39621;DHT22;25309;48.686;9.170;2022-10-04T15:26:35;22.50;94.50
39621;DHT22;25309;48.686;9.170;2022-10-04T15:29:05;22.40;94.30
39621;DHT22;25309;48.686;9.170;2022-10-04T15:31:51;22.30;94.50
39621;DHT22;25309;48.686;9.170;2022-10-04T15:34:30;22.20;94.80
39621;DHT22;25309;48.686;9.170;2022-10-04T15:37:06;22.10;94.90
39621;DHT22;25309;48.686;9.170;2022-10-04T15:40:02;22.10;95.40
39621;DHT22;25309;48.686;9.170;2022-10-04T15:42:32;21.90;95.60
39621;DHT22;25309;48.686;9.170;2022-10-04T15:45:18;21.90;95.80
39621;DHT22;25309;48.686;9.170;2022-10-04T15:47:56;21.90;96.00
39621;DHT22;25309;48.686;9.170;2022-10-04T15:50:31;21.90;95.80
39621;DHT22;25309;48.686;9.170;2022-10-04T15:53:15;21.80;95.80
39621;DHT22;25309;48.686;9.170;2022-10-04T15:59:15;21.70;96.30
39621;DHT22;25309;48.686;9.170;2022-10-04T16:02:01;21.70;96.00
39621;DHT22;25309;48.686;9.170;2022-10-04T16:04:40;21.60;96.10
39621;DHT22;25309;48.686;9.170;2022-10-04T16:07:38;21.50;96.10
39621;DHT22;25309;48.686;9.170;2022-10-04T16:10:17;21.30;96.20
39621;DHT22;25309;48.686;9.170;2022-10-04T16:13:11;21.20;96.50
39621;DHT22;25309;48.686;9.170;2022-10-04T16:15:45;21.00;96.50
39621;DHT22;25309;48.686;9.170;2022-10-04T16:18:31;20.90;96.70
39621;DHT22;25309;48.686;9.170;2022-10-04T16:21:05;20.80;97.10
39621;DHT22;25309;48.686;9.170;2022-10-04T16:23:40;20.70;97.30
39621;DHT22;25309;48.686;9.170;2022-10-04T16:26:10;20.60;97.40
39621;DHT22;25309;48.686;9.170;2022-10-04T16:29:08;20.50;98.00
39621;DHT22;25309;48.686;9.170;2022-10-04T16:31:47;20.40;97.90
39621;DHT22;25309;48.686;9.170;2022-10-04T16:34:34;20.20;98.20
39621;DHT22;25309;48.686;9.170;2022-10-04T16:37:30;20.10;98.30
39621;DHT22;25309;48.686;9.170;2022-10-04T16:40:02;20.00;98.50
39621;DHT22;25309;48.686;9.170;2022-10-04T16:42:48;19.90;98.70
39621;DHT22;25309;48.686;9.170;2022-10-04T16:45:40;19.70;99.20
39621;DHT22;25309;48.686;9.170;2022-10-04T16:48:36;19.60;99.30
39621;DHT22;25309;48.686;9.170;2022-10-04T16:54:12;19.30;99.90
39621;DHT22;25309;48.686;9.170;2022-10-04T16:57:13;19.10;99.90
39621;DHT22;25309;48.686;9.170;2022-10-04T16:59:46;19.00;99.90
39621;DHT22;25309;48.686;9.170;2022-10-04T17:02:35;18.90;99.90
39621;DHT22;25309;48.686;9.170;2022-10-04T17:05:28;18.80;99.90
39621;DHT22;25309;48.686;9.170;2022-10-04T17:08:19;18.70;99.90
39621;DHT22;25309;48.686;9.170;2022-10-04T17:17:13;18.30;99.90
39621;DHT22;25309;48.686;9.170;2022-10-04T17:19:47;18.30;99.90
39621;DHT22;25309;48.686;9.170;2022-10-04T17:22:26;18.20;99.90
39621;DHT22;25309;48.686;9.170;2022-10-04T17:25:00;18.10;99.90
39621;DHT22;25309;48.686;9.170;2022-10-04T17:27:44;18.10;99.90
39621;DHT22;25309;48.686;9.170;2022-10-04T17:30:18;18.00;99.90
39621;DHT22;25309;48.686;9.170;2022-10-04T17:33:03;17.90;99.90
39621;DHT22;25309;48.686;9.170;2022-10-04T17:35:55;17.90;99.90
39621;DHT22;25309;48.686;9.170;2022-10-04T17:38:29;17.70;99.90
39621;DHT22;25309;48.686;9.170;2022-10-04T17:41:04;17.60;99.90
39621;DHT22;25309;48.686;9.170;2022-10-04T17:43:43;17.50;99.90
39621;DHT22;25309;48.686;9.170;2022-10-04T17:46:17;17.40;99.90
39621;DHT22;25309;48.686;9.170;2022-10-04T17:48:53;17.30;99.90
39621;DHT22;25309;48.686;9.170;2022-10-04T17:51:45;17.20;99.90
39621;DHT22;25309;48.686;9.170;2022-10-04T17:54:38;17.10;99.90
39621;DHT22;25309;48.686;9.170;2022-10-04T17:57:28;17.00;99.90
39621;DHT22;25309;48.686;9.170;2022-10-04T18:00:05;16.90;99.90
39621;DHT22;25309;48.686;9.170;2022-10-04T18:02:58;16.80;99.90
39621;DHT22;25309;48.686;9.170;2022-10-04T18:05:28;16.70;99.90
39621;DHT22;25309;48.686;9.170;2022-10-04T18:07:59;16.60;99.90
39621;DHT22;25309;48.686;9.170;2022-10-04T18:10:31;16.60;99.90
39621;DHT22;25309;48.686;9.170;2022-10-04T18:13:02;16.50;99.90
39621;DHT22;25309;48.686;9.170;2022-10-04T18:15:35;16.50;99.90
39621;DHT22;25309;48.686;9.170;2022-10-04T18:18:14;16.40;99.90
39621;DHT22;25309;48.686;9.170;2022-10-04T18:20:59;16.30;99.90
39621;DHT22;25309;48.686;9.170;2022-10-04T18:23:29;16.30;99.90
39621;DHT22;25309;48.686;9.170;2022-10-04T18:25:59;16.20;99.90
39621;DHT22;25309;48.686;9.170;2022-10-04T18:28:26;16.20;99.90
39621;DHT22;25309;48.686;9.170;2022-10-04T18:30:56;16.10;99.90
39621;DHT22;25309;48.686;9.170;2022-10-04T18:33:45;16.10;99.90
39621;DHT22;25309;48.686;9.170;2022-10-04T18:36:16;16.00;99.90
39621;DHT22;25309;48.686;9.170;2022-10-04T18:38:46;16.00;99.90
39621;DHT22;25309;48.686;9.170;2022-10-04T18:41:23;15.90;99.90
39621;DHT22;25309;48.686;9.170;2022-10-04T18:44:14;15.90;99.90
39621;DHT22;25309;48.686;9.170;2022-10-04T18:46:43;15.80;99.90
39621;DHT22;25309;48.686;9.170;2022-10-04T18:49:17;15.80;99.90
39621;DHT22;25309;48.686;9.170;2022-10-04T18:51:55;15.70;99.90
39621;DHT22;25309;48.686;9.170;2022-10-04T18:54:32;15.70;99.90
39621;DHT22;25309;48.686;9.170;2022-10-04T18:57:12;15.70;99.90
39621;DHT22;25309;48.686;9.170;2022-10-04T18:59:51;15.60;99.90
39621;DHT22;25309;48.686;9.170;2022-10-04T19:02:48;15.50;99.90
39621;DHT22;25309;48.686;9.170;2022-10-04T19:05:25;15.50;99.90
39621;DHT22;25309;48.686;9.170;2022-10-04T19:08:02;15.40;99.90
39621;DHT22;25309;48.686;9.170;2022-10-04T19:10:32;15.40;99.90
39621;DHT22;25309;48.686;9.170;2022-10-04T19:13:13;15.40;99.90
39621;DHT22;25309;48.686;9.170;2022-10-04T19:16:05;15.40;99.90
39621;DHT22;25309;48.686;9.170;2022-10-04T19:18:52;15.30;99.90
39621;DHT22;25309;48.686;9.170;2022-10-04T19:21:27;15.30;99.90
39621;DHT22;25309;48.686;9.170;2022-10-04T19:24:11;15.20;99.90
39621;DHT22;25309;48.686;9.170;2022-10-04T19:26:45;15.20;99.90
39621;DHT22;25309;48.686;9.170;2022-10-04T19:29:22;15.20;99.90
39621;DHT22;25309;48.686;9.170;2022-10-04T19:31:55;15.10;99.90
39621;DHT22;25309;48.686;9.170;2022-10-04T19:34:33;15.10;99.90
39621;DHT22;25309;48.686;9.170;2022-10-04T19:37:10;15.00;99.90
39621;DHT22;25309;48.686;9.170;2022-10-04T19:39:48;14.90;99.90
39621;DHT22;25309;48.686;9.170;2022-10-04T19:42:25;14.90;99.90
39621;DHT22;25309;48.686;9.170;2022-10-04T19:45:00;14.70;99.90
39621;DHT22;25309;48.686;9.170;2022-10-04T19:47:39;14.70;99.90
39621;DHT22;25309;48.686;9.170;2022-10-04T19:50:18;14.70;99.90
39621;DHT22;25309;48.686;9.170;2022-10-04T19:52:51;14.70;99.90
39621;DHT22;25309;48.686;9.170;2022-10-04T19:55:23;14.60;99.90
39621;DHT22;25309;48.686;9.170;2022-10-04T19:58:02;14.60;99.90
39621;DHT22;25309;48.686;9.170;2022-10-04T20:00:34;14.50;99.90
39621;DHT22;25309;48.686;9.170;2022-10-04T20:03:08;14.50;99.90
39621;DHT22;25309;48.686;9.170;2022-10-04T20:05:41;14.50;99.90
39621;DHT22;25309;48.686;9.170;2022-10-04T20:08:12;14.50;99.90
39621;DHT22;25309;48.686;9.170;2022-10-04T20:10:41;14.40;99.90
39621;DHT22;25309;48.686;9.170;2022-10-04T20:13:26;14.40;99.90
39621;DHT22;25309;48.686;9.170;2022-10-04T20:15:54;14.40;99.90
39621;DHT22;25309;48.686;9.170;2022-10-04T20:18:50;14.40;99.90
39621;DHT22;25309;48.686;9.170;2022-10-04T20:21:26;14.40;99.90
39621;DHT22;25309;48.686;9.170;2022-10-04T20:23:56;14.40;99.90
39621;DHT22;25309;48.686;9.170;2022-10-04T20:26:48;14.40;99.90
39621;DHT22;25309;48.686;9.170;2022-10-04T20:32:53;14.30;99.90
39621;DHT22;25309;48.686;9.170;2022-10-04T20:38:46;14.20;99.90
39621;DHT22;25309;48.686;9.170;2022-10-04T20:41:42;14.10;99.90
39621;DHT22;25309;48.686;9.170;2022-10-04T20:44:43;14.00;99.90
39621;DHT22;25309;48.686;9.170;2022-10-04T20:47:20;14.00;99.90
39621;DHT22;25309;48.686;9.170;2022-10-04T20:49:50;14.00;99.90
39621;DHT22;25309;48.686;9.170;2022-10-04T20:52:18;14.00;99.90
39621;DHT22;25309;48.686;9.170;2022-10-04T20:54:49;14.00;99.90
39621;DHT22;25309;48.686;9.170;2022-10-04T20:57:19;13.90;99.90
39621;DHT22;25309;48.686;9.170;2022-10-04T20:59:50;13.90;99.90
39621;DHT22;25309;48.686;9.170;2022-10-04T21:02:22;13.90;99.90
39621;DHT22;25309;48.686;9.170;2022-10-04T21:04:49;13.90;99.90
39621;DHT22;25309;48.686;9.170;2022-10-04T21:07:21;13.80;99.90
39621;DHT22;25309;48.686;9.170;2022-10-04T21:09:49;13.80;99.90
39621;DHT22;25309;48.686;9.170;2022-10-04T21:12:31;13.70;99.90
39621;DHT22;25309;48.686;9.170;2022-10-04T21:15:05;13.70;99.90
39621;DHT22;25309;48.686;9.170;2022-10-04T21:17:34;13.70;99.90
39621;DHT22;25309;48.686;9.170;2022-10-04T21:20:03;13.70;99.90
39621;DHT22;25309;48.686;9.170;2022-10-04T21:22:35;13.70;99.90
39621;DHT22;25309;48.686;9.170;2022-10-04T21:27:47;13.70;99.90
39621;DHT22;25309;48.686;9.170;2022-10-04T21:30:16;13.70;99.90
39621;DHT22;25309;48.686;9.170;2022-10-04T21:32:45;13.70;99.90
39621;DHT22;25309;48.686;9.170;2022-10-04T21:35:12;13.60;99.90
39621;DHT22;25309;48.686;9.170;2022-10-04T21:37:39;13.50;99.90
39621;DHT22;25309;48.686;9.170;2022-10-04T21:40:07;13.40;99.90